Terminal Aerodrome Forecast
Issued by NWS

Home | Current Version | Previous Version | Text Only | Print | Product List | Glossary On
Versions: 1 2 3 4 5 6 7 8 9 10 11 12 13 14 15
072
FTUS44 KLIX 261121
TAFMCB
TAF
KMCB 261121Z 2612/2712 VRB04KT P6SM SKC
     FM261700 13008KT P6SM SKC
     FM270500 14007KT P6SM BKN100
     FM270800 14006KT P6SM OVC025=

USA.gov is the U.S. government's official web portal to all federal, state and local government web resources and services.